Time;durP1;ratioP1;P1;durP2;ratioP2;P2;SDS_P1;SDS_P2;PMS_P1;PMS_P2;Temp;Humidity;BMP_temperature;BMP_pressure;BME280_temperature;BME280_humidity;BME280_pressure;Samples;Min_cycle;Max_cycle;Signal;HPM_P1;HPM_P2
2021/03/11 00:01:50;;;;;;;46.92;30.23;;;;;;;3.04;69.39;100398.03;5019476;28;20422;-67
2021/03/11 00:04:15;;;;;;;45.35;30.50;;;;;;;3.11;69.49;100392.97;5021800;28;20443;-67
2021/03/11 00:06:41;;;;;;;52.63;31.50;;;;;;;3.13;69.03;100396.47;5022664;28;20042;-68
2021/03/11 00:09:06;;;;;;;45.50;30.15;;;;;;;3.18;69.28;100393.13;5021943;28;20112;-67
2021/03/11 00:11:31;;;;;;;44.08;29.30;;;;;;;3.26;69.63;100388.06;5019303;28;20058;-67
2021/03/11 00:13:57;;;;;;;42.40;28.33;;;;;;;3.37;68.39;100391.78;5019389;28;20369;-67
2021/03/11 00:16:22;;;;;;;46.30;30.58;;;;;;;3.43;68.68;100386.72;5022306;28;20033;-67
2021/03/11 00:18:48;;;;;;;45.03;28.67;;;;;;;3.51;68.60;100382.53;5025320;28;20048;-67
2021/03/11 00:21:13;;;;;;;44.97;28.40;;;;;;;3.56;68.81;100371.28;5024744;28;20040;-68
2021/03/11 00:23:38;;;;;;;48.85;30.00;;;;;;;3.64;68.22;100373.19;5023273;28;20500;-67
2021/03/11 00:26:03;;;;;;;49.17;32.20;;;;;;;3.67;68.53;100361.94;5023490;28;20111;-67
2021/03/11 00:28:29;;;;;;;47.28;29.75;;;;;;;3.75;67.66;100368.19;5026554;28;20045;-68
2021/03/11 00:30:54;;;;;;;46.78;31.67;;;;;;;3.77;67.57;100349.91;5026460;28;20041;-67
2021/03/11 00:33:20;;;;;;;45.20;29.17;;;;;;;3.74;68.29;100345.53;5023397;28;20096;-67
2021/03/11 00:35:45;;;;;;;49.38;30.35;;;;;;;3.79;67.56;100343.00;5023166;28;20038;-68
2021/03/11 00:38:10;;;;;;;45.22;29.30;;;;;;;3.77;68.28;100335.13;5024540;28;20034;-68
2021/03/11 00:40:36;;;;;;;44.75;28.70;;;;;;;3.77;67.81;100323.81;5026185;28;20500;-68
2021/03/11 00:43:01;;;;;;;45.53;28.50;;;;;;;3.79;67.71;100323.00;5025917;28;20407;-68
2021/03/11 00:45:27;;;;;;;44.17;28.92;;;;;;;3.76;68.02;100320.34;5022606;28;20121;-68
2021/03/11 00:47:52;;;;;;;46.75;30.25;;;;;;;3.67;67.94;100313.22;5022790;28;20084;-68
2021/03/11 00:50:20;;;;;;;50.10;29.25;;;;;;;3.66;67.89;100311.44;5023945;28;20069;-68
2021/03/11 00:52:46;;;;;;;42.88;29.13;;;;;;;3.64;67.94;100312.28;5024687;28;20030;-68
2021/03/11 00:55:15;;;;;;;50.22;30.73;;;;;;;3.62;67.98;100295.72;5023862;28;20029;-68
2021/03/11 00:57:41;;;;;;;44.03;28.70;;;;;;;3.61;67.53;100286.13;5022562;28;20038;-68
2021/03/11 01:00:09;;;;;;;44.28;28.13;;;;;;;3.57;68.27;100273.88;5022477;28;20471;-68
2021/03/11 01:02:49;;;;;;;;;;;;;;;3.48;68.65;100265.06;5024990;28;20087;-68
2021/03/11 01:05:24;;;;;;;49.10;30.70;;;;;;;3.48;68.40;100252.00;5023413;28;19970;-68
2021/03/11 01:07:50;;;;;;;45.33;29.23;;;;;;;3.48;68.09;100246.78;5022641;28;20030;-68
2021/03/11 01:10:15;;;;;;;48.10;29.42;;;;;;;3.45;68.11;100238.00;5024520;28;20032;-68
2021/03/11 01:12:41;;;;;;;48.17;29.15;;;;;;;3.44;68.31;100229.31;5025590;28;20037;-68
2021/03/11 01:15:07;;;;;;;46.20;29.52;;;;;;;3.40;68.59;100232.69;5024495;28;20037;-68
2021/03/11 01:17:33;;;;;;;46.88;28.50;;;;;;;3.41;68.63;100231.00;5022225;28;20061;-68
2021/03/11 01:19:59;;;;;;;48.30;29.77;;;;;;;3.39;68.66;100228.34;5022172;28;20041;-68
2021/03/11 01:22:24;;;;;;;47.20;29.40;;;;;;;3.39;68.17;100217.91;5025395;28;20120;-68
2021/03/11 01:24:49;;;;;;;47.92;31.10;;;;;;;3.38;68.88;100202.22;5025522;28;20045;-68
2021/03/11 01:27:15;;;;;;;49.15;29.98;;;;;;;3.36;68.88;100199.59;5023109;28;20037;-68
2021/03/11 01:29:40;;;;;;;48.72;30.38;;;;;;;3.40;68.82;100196.19;5020983;28;20042;-68
2021/03/11 01:32:06;;;;;;;45.33;28.83;;;;;;;3.41;68.66;100192.72;5022613;28;20034;-68
2021/03/11 01:34:31;;;;;;;41.30;27.63;;;;;;;3.43;69.10;100180.59;5025236;28;20030;-68
2021/03/11 01:36:56;;;;;;;48.58;29.90;;;;;;;3.43;69.10;100183.22;5024987;28;20519;-68
2021/03/11 01:39:22;;;;;;;47.75;28.27;;;;;;;3.55;68.46;100174.69;5022050;28;20034;-68
2021/03/11 01:41:47;;;;;;;43.97;27.55;;;;;;;3.59;68.39;100173.00;5021694;28;20065;-68
2021/03/11 01:44:13;;;;;;;42.78;27.15;;;;;;;3.58;68.80;100172.13;5023615;28;20032;-68
2021/03/11 01:46:38;;;;;;;44.42;27.80;;;;;;;3.60;69.02;100164.34;5024806;28;20488;-68
2021/03/11 01:49:03;;;;;;;46.30;29.52;;;;;;;3.63;68.25;100160.03;5024418;28;20476;-68
2021/03/11 01:51:30;;;;;;;45.08;28.48;;;;;;;3.67;68.46;100145.31;5021526;28;20582;-68
2021/03/11 01:53:56;;;;;;;47.95;29.98;;;;;;;3.63;68.53;100144.38;5021461;28;20032;-68
2021/03/11 01:56:21;;;;;;;47.03;29.33;;;;;;;3.69;68.49;100139.28;5031256;28;20399;-68
2021/03/11 01:58:46;;;;;;;48.63;29.48;;;;;;;3.74;68.24;100129.75;5027879;28;20069;-68
2021/03/11 02:01:12;;;;;;;41.83;26.63;;;;;;;3.81;67.98;100122.03;5022793;28;20036;-68
2021/03/11 02:03:37;;;;;;;47.70;27.65;;;;;;;3.86;67.76;100105.56;5021432;28;20034;-68
2021/03/11 02:06:03;;;;;;;43.13;29.33;;;;;;;3.93;67.49;100111.78;5021442;28;20088;-68
2021/03/11 02:08:29;;;;;;;48.10;29.60;;;;;;;3.93;67.53;100107.44;5024686;28;20044;-68
2021/03/11 02:10:55;;;;;;;41.38;26.73;;;;;;;4.01;67.19;100109.25;5024639;28;20076;-68
2021/03/11 02:13:44;;;;;;;42.90;27.35;;;;;;;4.01;67.48;100104.91;5021590;28;20365;-68
2021/03/11 02:16:25;;;;;;;45.10;28.67;;;;;;;4.09;67.57;100089.34;5022130;28;20123;-68
2021/03/11 02:19:05;;;;;;;46.75;29.55;;;;;;;4.17;67.02;100090.31;5024582;28;20069;-68
2021/03/11 02:21:41;;;;;;;48.58;29.95;;;;;;;4.21;67.14;100073.81;5020989;28;20041;-67
2021/03/11 02:24:35;;;;;;;42.55;28.17;;;;;;;4.23;67.02;100072.09;5021891;28;20044;-68
2021/03/11 02:27:18;;;;;;;48.90;29.00;;;;;;;4.27;66.79;100071.31;5023965;28;20101;-70
2021/03/11 02:29:45;;;;;;;44.53;27.85;;;;;;;4.38;66.67;100072.28;5020889;28;20373;-70
2021/03/11 02:32:12;;;;;;;46.13;28.25;;;;;;;4.44;66.24;100070.63;5022270;28;20133;-70
2021/03/11 02:34:46;;;;;;;44.13;28.58;;;;;;;4.47;66.09;100063.66;5024141;28;20048;-70
2021/03/11 02:37:20;;;;;;;48.17;29.23;;;;;;;4.45;65.97;100048.84;5022327;28;20061;-70
2021/03/11 02:39:53;;;;;;;47.38;28.92;;;;;;;4.49;66.11;100041.06;5020599;28;20037;-68
2021/03/11 02:42:20;;;;;;;44.22;28.88;;;;;;;4.52;65.72;100032.38;5022997;28;20042;-68
2021/03/11 02:44:46;;;;;;;43.70;28.83;;;;;;;4.60;65.92;100028.09;5023850;28;20036;-68
2021/03/11 02:47:11;;;;;;;44.95;28.65;;;;;;;4.63;65.51;100017.66;5022129;28;20395;-68
2021/03/11 02:49:37;;;;;;;43.60;27.02;;;;;;;4.67;65.41;100015.97;5020457;28;20025;-68
2021/03/11 02:52:04;;;;;;;45.05;28.23;;;;;;;4.72;65.31;100007.31;5020697;28;20041;-68
2021/03/11 02:54:30;;;;;;;44.15;28.48;;;;;;;4.74;65.15;99989.91;5023932;28;20392;-69
2021/03/11 02:56:59;;;;;;;43.83;27.65;;;;;;;4.74;64.94;100000.38;5023521;28;20045;-68
2021/03/11 02:59:26;;;;;;;37.95;25.52;;;;;;;4.80;64.76;99995.19;5020187;28;20485;-68
2021/03/11 03:01:54;;;;;;;41.88;27.23;;;;;;;4.84;64.88;99989.09;5020078;28;20042;-68
2021/03/11 03:04:21;;;;;;;40.65;26.30;;;;;;;4.89;64.26;99988.28;5022766;28;20030;-68
2021/03/11 03:06:48;;;;;;;41.50;27.35;;;;;;;4.93;64.66;99990.94;5023384;28;20491;-68
2021/03/11 03:09:14;;;;;;;42.80;28.00;;;;;;;4.91;64.59;99984.81;5021627;28;20055;-68
2021/03/11 03:11:40;;;;;;;41.53;27.63;;;;;;;4.93;64.48;99984.81;5020054;28;20079;-68
2021/03/11 03:14:07;;;;;;;44.33;28.88;;;;;;;4.97;64.54;99981.34;5020631;28;20092;-68
2021/03/11 03:16:33;;;;;;;44.13;29.10;;;;;;;4.99;64.04;99969.19;5023229;28;20502;-68
2021/03/11 03:19:00;;;;;;;40.08;25.70;;;;;;;5.04;64.07;99972.69;5023239;28;20041;-68
2021/03/11 03:21:26;;;;;;;41.63;27.00;;;;;;;5.08;63.72;99964.00;5019981;28;20096;-68
2021/03/11 03:23:53;;;;;;;42.35;27.33;;;;;;;5.08;63.73;99953.53;5019943;28;20038;-68
2021/03/11 03:26:18;;;;;;;38.70;25.75;;;;;;;5.08;63.99;99948.31;5022250;28;20104;-68
2021/03/11 03:32:30;;;;;;;40.78;25.40;;;;;;;5.11;63.74;99932.66;5021020;28;20128;-68
2021/03/11 03:34:55;;;;;;;42.80;27.23;;;;;;;5.17;63.77;99937.91;5027359;28;20549;-68
2021/03/11 03:37:20;;;;;;;43.80;28.42;;;;;;;5.13;63.84;99928.28;5030253;28;20048;-68
2021/03/11 03:39:46;;;;;;;39.20;25.95;;;;;;;5.13;63.82;99920.44;5022967;28;20045;-68
2021/03/11 03:42:11;;;;;;;40.53;26.17;;;;;;;5.19;63.73;99919.63;5029324;28;20044;-68
2021/03/11 03:44:41;;;;;;;41.00;25.95;;;;;;;5.17;63.71;99916.13;5031213;28;20025;-68
2021/03/11 03:47:08;;;;;;;39.03;26.38;;;;;;;5.18;63.79;99912.63;5021928;28;20057;-68
2021/03/11 03:49:34;;;;;;;39.45;25.48;;;;;;;5.24;63.81;99916.16;5019559;28;20033;-68
2021/03/11 03:52:02;;;;;;;40.45;27.42;;;;;;;5.26;63.72;99909.16;5019503;28;20416;-68
2021/03/11 03:54:34;;;;;;;40.22;26.05;;;;;;;5.29;63.65;99905.69;5023346;28;20042;-68
2021/03/11 03:57:06;;;;;;;39.47;26.38;;;;;;;5.33;63.74;99915.31;5023605;28;20116;-68
2021/03/11 03:59:37;;;;;;;38.78;26.58;;;;;;;5.41;63.52;99902.28;5023661;28;20419;-68
2021/03/11 04:02:06;;;;;;;40.45;26.88;;;;;;;5.42;63.77;99904.91;5023660;28;20042;-68
2021/03/11 04:04:35;;;;;;;41.13;25.88;;;;;;;5.44;64.10;99911.00;5028805;28;20030;-69
2021/03/11 04:07:03;;;;;;;40.05;27.52;;;;;;;5.48;64.02;99899.69;5030027;28;20046;-68
2021/03/11 04:09:29;;;;;;;40.35;27.92;;;;;;;5.51;63.90;99896.22;5026786;28;20045;-69
2021/03/11 04:11:54;;;;;;;38.53;25.67;;;;;;;5.52;64.61;99895.34;5026814;28;20033;-68
2021/03/11 04:14:20;;;;;;;40.03;28.40;;;;;;;5.47;64.71;99890.09;5024008;28;20558;-68
2021/03/11 04:16:47;;;;;;;42.13;28.70;;;;;;;5.47;65.33;99884.84;5023151;28;20042;-68
2021/03/11 04:19:13;;;;;;;36.03;24.52;;;;;;;5.36;66.90;99885.69;5024882;28;20132;-68
2021/03/11 04:21:39;;;;;;;39.97;25.98;;;;;;;5.18;67.76;99882.09;5026593;28;20057;-68
2021/03/11 04:24:05;;;;;;;44.88;28.30;;;;;;;5.18;67.66;99863.78;5025892;28;20079;-68
2021/03/11 04:26:32;;;;;;;39.13;25.73;;;;;;;5.25;67.20;99855.09;5022853;28;20037;-68
2021/03/11 04:28:58;;;;;;;39.90;25.30;;;;;;;5.24;67.86;99835.06;5023048;28;20092;-68
2021/03/11 04:31:26;;;;;;;41.45;26.55;;;;;;;5.32;67.34;99827.25;5026211;28;20539;-68
2021/03/11 04:33:52;;;;;;;41.15;25.75;;;;;;;5.35;67.64;99823.75;5026264;28;20042;-68
2021/03/11 04:36:18;;;;;;;36.00;25.08;;;;;;;5.41;67.13;99805.47;5023781;28;20476;-68
2021/03/11 04:38:44;;;;;;;40.63;27.63;;;;;;;5.39;67.24;99805.44;5022886;28;20034;-68
2021/03/11 04:41:10;;;;;;;38.25;25.63;;;;;;;5.38;67.67;99789.75;5024104;28;20500;-68
2021/03/11 04:43:38;;;;;;;36.55;24.45;;;;;;;5.41;67.06;99790.63;5026232;28;20037;-68
2021/03/11 04:46:04;;;;;;;37.20;24.25;;;;;;;5.44;66.91;99789.75;5025341;28;20030;-68
2021/03/11 04:48:32;;;;;;;39.47;26.00;;;;;;;5.41;66.86;99784.53;5022700;28;20041;-68
2021/03/11 04:50:59;;;;;;;37.08;25.25;;;;;;;5.41;66.83;99768.81;5022865;28;20052;-68
2021/03/11 04:53:24;;;;;;;36.47;24.25;;;;;;;5.44;66.80;99755.72;5025241;28;20041;-68
2021/03/11 04:55:50;;;;;;;39.70;24.55;;;;;;;5.47;67.14;99758.34;5029000;28;20056;-70
2021/03/11 04:58:15;;;;;;;36.90;25.48;;;;;;;5.44;67.08;99746.13;5023820;28;20048;-70
2021/03/11 05:00:46;;;;;;;36.15;25.23;;;;;;;5.48;66.74;99740.06;5022293;28;20037;-71
2021/03/11 05:03:13;;;;;;;36.28;24.80;;;;;;;5.46;67.09;99735.69;5023880;28;20045;-70
2021/03/11 05:05:40;;;;;;;37.38;25.38;;;;;;;5.49;66.88;99730.44;5025592;28;20061;-70
2021/03/11 05:08:06;;;;;;;36.53;24.75;;;;;;;5.50;66.87;99716.47;5025045;28;20033;-71
2021/03/11 05:10:33;;;;;;;39.33;26.80;;;;;;;5.48;66.76;99713.00;5022298;28;20034;-70
2021/03/11 05:12:59;;;;;;;34.78;23.23;;;;;;;5.48;66.46;99713.00;5022039;28;20116;-71
2021/03/11 05:15:24;;;;;;;36.83;23.58;;;;;;;5.49;66.43;99710.38;5025352;28;20034;-70
2021/03/11 05:17:50;;;;;;;35.35;23.48;;;;;;;5.50;66.08;99700.78;5025647;28;20033;-70
2021/03/11 05:20:16;;;;;;;35.90;23.35;;;;;;;5.56;66.08;99699.94;5023344;28;20663;-69
2021/03/11 05:22:42;;;;;;;38.10;24.33;;;;;;;5.60;66.21;99694.69;5022102;28;20050;-67
2021/03/11 05:25:09;;;;;;;34.00;22.67;;;;;;;5.60;66.11;99689.44;5022650;28;20485;-68
2021/03/11 05:27:36;;;;;;;37.03;24.13;;;;;;;5.67;66.07;99682.47;5025275;28;20030;-67
2021/03/11 05:30:02;;;;;;;36.90;23.88;;;;;;;5.69;65.90;99676.38;5025154;28;20036;-67
2021/03/11 05:32:28;;;;;;;35.20;21.88;;;;;;;5.74;65.89;99665.00;5021858;28;20037;-67
2021/03/11 05:34:53;;;;;;;36.15;23.55;;;;;;;5.69;65.83;99665.03;5021712;28;20393;-67
2021/03/11 05:37:19;;;;;;;43.05;26.77;;;;;;;5.74;66.28;99665.00;5024119;28;20029;-67
2021/03/11 05:39:44;;;;;;;46.20;29.50;;;;;;;5.77;67.03;99670.28;5025208;28;20120;-67
2021/03/11 05:42:11;;;;;;;43.78;28.50;;;;;;;5.80;67.55;99662.41;5023553;28;20495;-68
2021/03/11 05:44:41;;;;;;;37.60;25.33;;;;;;;5.84;66.62;99657.19;5021899;28;20044;-67
2021/03/11 05:47:07;;;;;;;36.38;24.23;;;;;;;5.83;66.72;99651.94;5022273;28;20129;-68
2021/03/11 05:49:33;;;;;;;35.13;23.98;;;;;;;5.78;67.05;99636.22;5025015;28;20108;-68
2021/03/11 05:52:00;;;;;;;35.47;23.17;;;;;;;5.70;67.49;99630.13;5024835;28;20618;-67
2021/03/11 05:54:27;;;;;;;32.03;22.13;;;;;;;5.69;67.36;99624.00;5021432;28;20045;-67
2021/03/11 05:56:53;;;;;;;34.80;23.77;;;;;;;5.79;67.54;99634.47;5021029;28;20042;-68
2021/03/11 05:59:18;;;;;;;36.28;24.88;;;;;;;5.76;68.09;99629.22;5031007;28;20393;-67
2021/03/11 06:01:44;;;;;;;33.35;22.48;;;;;;;5.70;68.23;99625.75;5024840;28;20038;-67
2021/03/11 06:04:11;;;;;;;30.38;21.52;;;;;;;5.60;68.76;99616.16;5027840;28;20472;-67
2021/03/11 06:06:37;;;;;;;35.85;23.80;;;;;;;5.63;69.14;99603.09;5023581;28;20080;-67
2021/03/11 06:09:03;;;;;;;34.28;24.13;;;;;;;5.48;69.69;99597.84;5024565;28;20504;-67
2021/03/11 06:11:28;;;;;;;38.20;24.55;;;;;;;5.49;69.79;99600.47;5032415;28;20044;-67
2021/03/11 06:13:54;;;;;;;34.58;23.15;;;;;;;5.61;69.40;99610.06;5025182;28;20026;-67
2021/03/11 06:16:30;;;;;;;33.40;22.95;;;;;;;5.65;70.23;99606.56;5022838;28;20096;-68
2021/03/11 06:18:56;;;;;;;35.38;24.95;;;;;;;5.63;70.09;99610.94;5024416;28;20116;-68
2021/03/11 06:21:22;;;;;;;34.55;23.75;;;;;;;5.62;69.84;99601.31;5021416;28;20496;-67
2021/03/11 06:23:48;;;;;;;37.42;26.15;;;;;;;5.68;69.46;99603.06;5020921;28;20026;-67
2021/03/11 06:26:14;;;;;;;40.72;28.52;;;;;;;5.67;70.20;99599.56;5022416;28;20056;-67
2021/03/11 06:28:45;;;;;;;41.50;26.70;;;;;;;5.61;70.89;99593.50;5024348;28;20033;-67
2021/03/11 06:31:18;;;;;;;39.85;27.02;;;;;;;5.59;70.14;99579.53;5022220;28;20041;-68
2021/03/11 06:33:44;;;;;;;37.15;26.58;;;;;;;5.47;70.93;99567.31;5023966;28;20068;-68
2021/03/11 06:36:14;;;;;;;39.33;27.17;;;;;;;5.47;70.67;99568.19;5064970;23;20078;-70
2021/03/11 06:38:39;;;;;;;38.58;26.65;;;;;;;5.38;71.11;99559.47;4987090;28;20397;-70
2021/03/11 06:41:05;;;;;;;40.40;27.88;;;;;;;5.31;70.71;99552.50;4983397;28;20045;-70
2021/03/11 06:43:30;;;;;;;37.15;24.40;;;;;;;5.25;70.72;99546.41;4987079;28;20026;-70
2021/03/11 06:46:08;;;;;;;44.92;28.50;;;;;;;5.16;71.53;99538.56;4992330;28;20100;-70
2021/03/11 06:48:34;;;;;;;38.50;25.45;;;;;;;5.05;71.95;99533.31;4978955;28;20129;-70
2021/03/11 06:51:02;;;;;;;38.08;26.33;;;;;;;5.08;71.83;99528.97;4983631;28;20042;-70
2021/03/11 06:53:29;;;;;;;37.58;26.35;;;;;;;5.05;71.62;99529.81;4981110;28;20031;-70
2021/03/11 06:56:19;;;;;;;37.90;24.35;;;;;;;5.05;71.65;99527.22;4984500;28;20533;-70
2021/03/11 06:58:58;;;;;;;35.28;24.08;;;;;;;5.08;71.30;99528.97;4981674;28;20034;-70
2021/03/11 07:01:24;;;;;;;36.88;24.40;;;;;;;5.08;71.51;99529.81;4992608;28;20048;-70
2021/03/11 07:03:50;;;;;;;37.10;25.92;;;;;;;5.11;72.00;99536.78;4992543;28;20034;-70
2021/03/11 07:06:28;;;;;;;39.38;27.52;;;;;;;5.11;72.41;99529.84;4992096;28;20057;-70
2021/03/11 07:08:54;;;;;;;33.00;23.20;;;;;;;5.06;72.24;99513.28;4992149;28;20035;-70
2021/03/11 07:11:20;;;;;;;35.15;24.05;;;;;;;5.04;72.84;99517.63;4992361;28;20463;-70
2021/03/11 07:13:47;;;;;;;47.35;30.17;;;;;;;5.05;76.15;99516.75;4992248;28;20105;-70
2021/03/11 07:16:14;;;;;;;36.42;23.30;;;;;;;5.08;73.47;99501.06;4991958;28;20034;-70
2021/03/11 07:18:39;;;;;;;38.17;25.95;;;;;;;5.08;74.05;99501.06;4992272;28;20038;-70
2021/03/11 07:21:05;;;;;;;38.35;26.27;;;;;;;5.04;75.66;99497.59;4992116;28;20096;-70
2021/03/11 07:23:30;;;;;;;36.83;25.13;;;;;;;5.09;75.98;99500.19;4992171;28;20701;-71
2021/03/11 07:25:56;;;;;;;50.50;30.40;;;;;;;5.21;76.46;99473.16;4991915;28;20030;-70
2021/03/11 07:28:26;;;;;;;35.55;23.98;;;;;;;5.22;74.69;99475.78;4991316;28;20061;-71
2021/03/11 07:30:52;;;;;;;32.97;22.95;;;;;;;5.19;74.61;99483.63;4992113;28;20031;-70
2021/03/11 07:33:19;;;;;;;35.75;24.92;;;;;;;5.08;76.11;99467.06;4982565;28;20061;-70
2021/03/11 07:35:47;;;;;;;45.45;28.63;;;;;;;5.26;76.30;99464.41;4991575;28;20042;-70
2021/03/11 07:38:17;;;;;;;36.50;25.42;;;;;;;5.25;75.80;99474.91;4992036;28;20042;-70
2021/03/11 07:40:45;;;;;;;41.50;27.70;;;;;;;5.41;75.99;99467.88;4991965;28;20084;-70
2021/03/11 07:43:12;;;;;;;40.17;25.15;;;;;;;5.42;74.41;99465.28;4992041;28;20121;-70
2021/03/11 07:45:38;;;;;;;34.20;23.35;;;;;;;5.42;73.56;99467.00;4991656;28;20042;-70
2021/03/11 07:48:04;;;;;;;35.58;23.58;;;;;;;5.38;74.51;99466.16;4991888;28;20038;-70
2021/03/11 07:50:30;;;;;;;35.42;24.63;;;;;;;5.37;74.66;99464.41;4982507;28;20049;-70
2021/03/11 07:52:58;;;;;;;37.45;24.10;;;;;;;5.46;73.93;99473.97;4982562;28;20560;-70
2021/03/11 07:55:25;;;;;;;34.90;24.42;;;;;;;5.41;74.11;99467.88;4991438;28;20042;-71
2021/03/11 07:57:51;;;;;;;34.70;23.73;;;;;;;5.46;73.65;99464.38;4981991;28;20042;-71
2021/03/11 08:00:24;;;;;;;39.00;28.20;;;;;;;5.37;74.53;99446.09;4983906;28;20035;-70
2021/03/11 08:02:56;;;;;;;39.90;26.33;;;;;;;5.39;74.18;99446.94;4972421;28;20046;-71
2021/03/11 08:05:29;;;;;;;34.60;24.08;;;;;;;5.44;74.56;99439.09;4981266;28;20031;-71
2021/03/11 08:08:17;;;;;;;39.38;26.48;;;;;;;5.53;74.00;99446.03;4985959;28;20048;-70
2021/03/11 08:10:47;;;;;;;43.40;28.63;;;;;;;5.52;74.02;99436.47;4980051;28;20045;-70
2021/03/11 08:13:30;;;;;;;36.08;23.92;;;;;;;5.62;73.32;99425.94;4984127;28;20121;-70
2021/03/11 08:15:57;;;;;;;34.83;23.02;;;;;;;5.73;72.22;99415.44;4988468;28;20043;-70
2021/03/11 08:18:32;;;;;;;33.65;22.95;;;;;;;5.81;71.97;99397.94;4991656;28;20493;-71
2021/03/11 08:20:57;;;;;;;36.13;24.42;;;;;;;5.84;72.43;99402.28;4991579;28;20125;-71
2021/03/11 08:23:27;;;;;;;35.80;23.08;;;;;;;5.84;72.17;99403.19;4980485;28;20185;-70
2021/03/11 08:25:53;;;;;;;34.63;23.50;;;;;;;5.86;72.52;99405.78;4988301;28;20562;-70
2021/03/11 08:28:18;;;;;;;32.30;23.20;;;;;;;6.00;71.79;99403.09;4983404;28;20106;-71
2021/03/11 08:30:46;;;;;;;33.22;23.80;;;;;;;6.04;72.39;99399.59;4985573;28;20641;-70
2021/03/11 08:33:13;;;;;;;36.97;24.42;;;;;;;6.05;72.27;99396.09;4991290;28;20041;-70
2021/03/11 08:35:41;;;;;;;33.85;24.48;;;;;;;6.02;72.36;99396.97;4990894;28;20030;-70
2021/03/11 08:38:21;;;;;;;33.33;22.83;;;;;;;6.13;72.37;99400.41;4990195;28;20452;-70
2021/03/11 08:41:14;;;;;;;43.20;25.63;;;;;;;6.19;71.88;99391.66;4995172;28;20111;-70
2021/03/11 08:43:40;;;;;;;;;;;;;;;6.20;71.92;99388.13;4982885;28;20049;-70
2021/03/11 08:46:22;;;;;;;31.55;21.45;;;;;;;6.26;71.28;99387.22;4985434;28;19917;-71
2021/03/11 08:48:51;;;;;;;32.10;21.83;;;;;;;6.29;71.22;99387.22;4994923;28;20117;-70
2021/03/11 08:51:17;;;;;;;30.70;22.10;;;;;;;6.30;71.27;99392.44;4994824;28;20512;-70
2021/03/11 08:53:44;;;;;;;29.75;20.65;;;;;;;6.28;71.44;99388.94;4994876;28;20034;-70
2021/03/11 08:56:16;;;;;;;33.10;22.45;;;;;;;6.34;71.64;99383.69;4994529;28;20034;-70
2021/03/11 08:59:04;;;;;;;29.27;21.58;;;;;;;6.41;71.44;99381.88;4994834;28;20420;-70
2021/03/11 09:01:54;;;;;;;27.60;19.77;;;;;;;6.52;70.69;99371.28;4979822;28;20038;-69
2021/03/11 09:04:20;;;;;;;27.40;20.13;;;;;;;6.55;70.79;99374.78;4994763;28;20058;-70
2021/03/11 09:06:57;;;;;;;28.70;19.65;;;;;;;6.56;70.84;99376.50;4994356;28;20077;-70
2021/03/11 09:09:40;;;;;;;27.75;19.17;;;;;;;6.65;70.52;99382.56;4994562;28;20046;-70
2021/03/11 09:12:16;;;;;;;28.98;19.25;;;;;;;6.68;70.61;99372.03;4983839;28;20037;-70
2021/03/11 09:14:44;;;;;;;24.60;17.70;;;;;;;6.81;69.78;99363.16;4991504;28;20042;-70
2021/03/11 09:17:16;;;;;;;25.02;18.55;;;;;;;6.92;69.88;99347.34;4994211;28;20040;-70
2021/03/11 09:19:54;;;;;;;25.52;18.25;;;;;;;6.97;69.85;99353.44;4994471;28;20040;-71
2021/03/11 09:22:39;;;;;;;27.55;19.27;;;;;;;7.02;70.16;99354.22;4994167;28;20042;-71
2021/03/11 09:25:17;;;;;;;25.45;19.10;;;;;;;7.14;69.69;99353.22;4994233;28;20089;-71
2021/03/11 09:27:53;;;;;;;24.92;18.40;;;;;;;7.19;69.78;99354.06;4994282;28;20045;-70
2021/03/11 09:30:22;;;;;;;24.13;16.58;;;;;;;7.32;69.26;99332.03;4994379;28;20030;-70
2021/03/11 09:32:47;;;;;;;26.30;18.35;;;;;;;7.45;69.70;99324.88;4994097;28;20168;-70
2021/03/11 09:35:14;;;;;;;28.65;20.15;;;;;;;7.46;70.20;99322.19;4993929;28;20121;-71
2021/03/11 09:38:03;;;;;;;27.92;18.38;;;;;;;7.60;69.69;99319.41;4994005;28;20519;-70
2021/03/11 09:40:34;;;;;;;27.73;17.83;;;;;;;7.58;70.13;99322.94;4978557;28;20036;-70
2021/03/11 09:43:24;;;;;;;30.58;21.33;;;;;;;7.55;70.81;99310.72;4983168;28;20034;-70
2021/03/11 09:45:57;;;;;;;23.83;16.95;;;;;;;7.59;70.11;99322.06;4981925;28;20129;-71
2021/03/11 09:48:24;;;;;;;;;;;;;;;7.54;70.38;99326.50;4987989;28;20092;-71
2021/03/11 09:51:06;;;;;;;25.98;17.48;;;;;;;7.61;70.77;99329.03;4986997;28;19913;-71
2021/03/11 09:53:40;;;;;;;22.08;15.25;;;;;;;7.71;70.19;99327.16;4979257;28;20450;-71
2021/03/11 09:56:11;;;;;;;21.85;15.75;;;;;;;7.78;69.77;99315.69;4991243;28;20046;-71
2021/03/11 09:58:53;;;;;;;20.38;14.57;;;;;;;7.86;69.80;99305.06;4982863;28;20409;-70
2021/03/11 10:01:29;;;;;;;22.20;15.48;;;;;;;7.84;70.38;99297.19;4988527;28;20030;-71
2021/03/11 10:03:54;;;;;;;25.55;17.15;;;;;;;7.90;70.21;99297.09;4993659;28;20033;-70
2021/03/11 10:06:21;;;;;;;23.15;14.52;;;;;;;7.88;70.53;99300.63;4991480;28;20463;-71
2021/03/11 10:08:51;;;;;;;16.20;11.05;;;;;;;7.98;69.87;99304.00;4993587;28;20121;-70
2021/03/11 10:11:18;;;;;;;14.52;9.55;;;;;;;8.14;69.24;99302.84;4993646;28;20108;-70
2021/03/11 10:13:48;;;;;;;16.30;10.18;;;;;;;8.26;68.62;99307.91;4993337;28;20076;-70
2021/03/11 10:16:14;;;;;;;12.98;9.27;;;;;;;8.37;68.12;99294.59;4993053;28;20042;-70
2021/03/11 10:19:04;;;;;;;16.27;9.20;;;;;;;8.42;67.20;99284.91;4993299;28;20096;-70
2021/03/11 10:21:30;;;;;;;15.50;10.05;;;;;;;8.52;67.91;99291.75;4978227;28;20089;-70
2021/03/11 10:23:56;;;;;;;15.73;10.63;;;;;;;8.54;68.15;99284.69;4993270;28;20030;-70
2021/03/11 10:26:23;;;;;;;14.10;8.85;;;;;;;8.52;68.74;99286.47;4992896;28;20562;-70
2021/03/11 10:28:52;;;;;;;17.13;10.15;;;;;;;8.46;69.29;99290.97;4993223;28;20037;-70
2021/03/11 10:31:21;;;;;;;13.52;9.57;;;;;;;8.36;69.73;99292.88;4993005;28;20077;-70
2021/03/11 10:34:00;;;;;;;16.25;10.15;;;;;;;8.24;71.39;99287.81;4992988;28;20034;-70
2021/03/11 10:36:26;;;;;;;15.32;9.35;;;;;;;8.11;72.02;99281.88;4992832;28;20672;-70
2021/03/11 10:39:03;;;;;;;13.48;9.85;;;;;;;8.03;72.52;99291.66;4993023;28;20041;-69
2021/03/11 10:41:29;;;;;;;17.70;10.75;;;;;;;7.86;73.82;99287.53;4977609;28;20042;-70
2021/03/11 10:44:13;;;;;;;13.10;9.57;;;;;;;7.80;74.30;99287.59;4992765;28;20062;-70
2021/03/11 10:46:40;;;;;;;16.60;10.57;;;;;;;7.79;74.29;99285.03;4979614;28;20129;-70
2021/03/11 10:49:06;;;;;;;18.25;11.77;;;;;;;7.77;74.47;99284.16;4992711;28;20038;-70
2021/03/11 10:51:32;;;;;;;14.55;11.40;;;;;;;7.76;75.29;99282.44;4992717;28;20034;-70
2021/03/11 10:53:59;;;;;;;16.35;10.18;;;;;;;7.76;75.76;99266.69;4992636;28;20046;-69
2021/03/11 10:56:26;;;;;;;12.60;9.75;;;;;;;7.81;75.55;99264.84;4985308;28;20030;-69
2021/03/11 10:59:14;;;;;;;15.95;10.18;;;;;;;7.82;76.13;99264.81;4984914;28;20062;-70
2021/03/11 11:01:40;;;;;;;14.10;10.20;;;;;;;7.92;75.18;99256.81;4973802;28;20497;-71
2021/03/11 11:04:06;;;;;;;15.70;10.85;;;;;;;7.96;75.52;99247.97;4975873;28;20034;-71
2021/03/11 11:06:31;;;;;;;16.17;11.05;;;;;;;7.97;75.49;99250.59;4993608;28;20496;-70
2021/03/11 11:08:56;;;;;;;18.38;10.38;;;;;;;8.04;74.91;99246.09;4989864;28;20525;-70
2021/03/11 11:11:23;;;;;;;14.25;10.77;;;;;;;8.11;75.42;99239.84;4992059;28;20042;-70
2021/03/11 11:13:49;;;;;;;16.63;11.32;;;;;;;8.22;75.04;99230.00;4992272;28;20122;-71
2021/03/11 11:16:15;;;;;;;14.85;9.80;;;;;;;8.26;74.95;99234.31;4992025;28;20520;-70
2021/03/11 11:18:40;;;;;;;17.08;12.23;;;;;;;8.38;74.61;99225.34;4992113;28;20061;-71
2021/03/11 11:21:06;;;;;;;16.30;10.85;;;;;;;8.53;74.76;99218.97;4983726;28;20501;-71
2021/03/11 11:23:32;;;;;;;18.67;12.63;;;;;;;8.64;74.43;99221.41;4992023;28;20109;-70
2021/03/11 11:25:58;;;;;;;27.08;19.60;;;;;;;8.69;74.79;99220.41;4991701;28;20473;-70
2021/03/11 11:28:23;;;;;;;18.45;12.90;;;;;;;8.81;74.01;99213.19;4992022;28;20034;-70
2021/03/11 11:30:49;;;;;;;16.95;12.00;;;;;;;8.93;74.15;99210.28;4992046;28;20038;-69
2021/03/11 11:33:14;;;;;;;16.92;9.82;;;;;;;8.99;73.60;99202.28;4988314;28;20046;-70
2021/03/11 11:35:40;;;;;;;13.45;9.18;;;;;;;9.02;73.25;99189.06;4976700;28;20035;-70